sensor_id;sensor_type;location;lat;lon;timestamp;P1;durP1;ratioP1;P2;durP2;ratioP2
74269;SDS011;62754;48.252;11.654;2022-08-05T00:00:35;5.38;;;3.42;;
74269;SDS011;62754;48.252;11.654;2022-08-05T00:03:01;7.35;;;3.92;;
74269;SDS011;62754;48.252;11.654;2022-08-05T00:05:27;6.75;;;4.20;;
74269;SDS011;62754;48.252;11.654;2022-08-05T00:07:52;8.00;;;3.83;;
74269;SDS011;62754;48.252;11.654;2022-08-05T00:10:18;4.88;;;3.88;;
74269;SDS011;62754;48.252;11.654;2022-08-05T00:12:44;4.53;;;3.50;;
74269;SDS011;62754;48.252;11.654;2022-08-05T00:15:10;5.65;;;3.70;;
74269;SDS011;62754;48.252;11.654;2022-08-05T00:17:36;9.15;;;4.40;;
74269;SDS011;62754;48.252;11.654;2022-08-05T00:20:02;5.88;;;4.43;;
74269;SDS011;62754;48.252;11.654;2022-08-05T00:22:28;5.10;;;3.70;;
74269;SDS011;62754;48.252;11.654;2022-08-05T00:24:54;5.57;;;4.10;;
74269;SDS011;62754;48.252;11.654;2022-08-05T00:27:19;6.15;;;4.03;;
74269;SDS011;62754;48.252;11.654;2022-08-05T00:29:45;6.43;;;4.20;;
74269;SDS011;62754;48.252;11.654;2022-08-05T00:32:11;5.55;;;4.50;;
74269;SDS011;62754;48.252;11.654;2022-08-05T00:34:38;7.32;;;4.32;;
74269;SDS011;62754;48.252;11.654;2022-08-05T00:37:04;6.43;;;4.45;;
74269;SDS011;62754;48.252;11.654;2022-08-05T00:39:30;5.72;;;4.38;;
74269;SDS011;62754;48.252;11.654;2022-08-05T00:41:56;6.47;;;4.35;;
74269;SDS011;62754;48.252;11.654;2022-08-05T00:44:22;6.47;;;4.00;;
74269;SDS011;62754;48.252;11.654;2022-08-05T00:49:14;4.45;;;3.85;;
74269;SDS011;62754;48.252;11.654;2022-08-05T00:51:39;5.07;;;4.07;;
74269;SDS011;62754;48.252;11.654;2022-08-05T00:54:05;5.85;;;4.28;;
74269;SDS011;62754;48.252;11.654;2022-08-05T00:56:31;6.18;;;4.28;;
74269;SDS011;62754;48.252;11.654;2022-08-05T00:58:57;6.15;;;3.60;;
74269;SDS011;62754;48.252;11.654;2022-08-05T01:01:22;5.18;;;4.05;;
74269;SDS011;62754;48.252;11.654;2022-08-05T01:03:48;4.47;;;3.60;;
74269;SDS011;62754;48.252;11.654;2022-08-05T01:06:14;5.97;;;3.80;;
74269;SDS011;62754;48.252;11.654;2022-08-05T01:08:40;6.55;;;4.32;;
74269;SDS011;62754;48.252;11.654;2022-08-05T01:11:11;6.55;;;4.20;;
74269;SDS011;62754;48.252;11.654;2022-08-05T01:13:44;6.75;;;4.50;;
74269;SDS011;62754;48.252;11.654;2022-08-05T01:16:13;9.18;;;4.53;;
74269;SDS011;62754;48.252;11.654;2022-08-05T01:18:46;6.63;;;4.47;;
74269;SDS011;62754;48.252;11.654;2022-08-05T01:21:22;6.45;;;4.43;;
74269;SDS011;62754;48.252;11.654;2022-08-05T01:29:03;7.53;;;4.60;;
74269;SDS011;62754;48.252;11.654;2022-08-05T01:31:40;7.30;;;4.78;;
74269;SDS011;62754;48.252;11.654;2022-08-05T01:34:31;6.00;;;4.80;;
74269;SDS011;62754;48.252;11.654;2022-08-05T01:37:01;6.72;;;4.32;;
74269;SDS011;62754;48.252;11.654;2022-08-05T01:39:32;6.07;;;4.53;;
74269;SDS011;62754;48.252;11.654;2022-08-05T01:42:00;5.97;;;4.28;;
74269;SDS011;62754;48.252;11.654;2022-08-05T01:44:28;6.28;;;4.65;;
74269;SDS011;62754;48.252;11.654;2022-08-05T01:46:55;6.55;;;4.75;;
74269;SDS011;62754;48.252;11.654;2022-08-05T01:49:23;7.38;;;5.00;;
74269;SDS011;62754;48.252;11.654;2022-08-05T01:51:53;7.07;;;4.15;;
74269;SDS011;62754;48.252;11.654;2022-08-05T01:54:23;5.57;;;4.85;;
74269;SDS011;62754;48.252;11.654;2022-08-05T01:56:52;5.43;;;4.10;;
74269;SDS011;62754;48.252;11.654;2022-08-05T01:59:20;6.88;;;4.75;;
74269;SDS011;62754;48.252;11.654;2022-08-05T02:01:48;7.80;;;4.70;;
74269;SDS011;62754;48.252;11.654;2022-08-05T02:04:18;6.63;;;4.55;;
74269;SDS011;62754;48.252;11.654;2022-08-05T02:06:46;7.25;;;5.10;;
74269;SDS011;62754;48.252;11.654;2022-08-05T02:09:12;6.30;;;4.88;;
74269;SDS011;62754;48.252;11.654;2022-08-05T02:11:46;5.43;;;4.93;;
74269;SDS011;62754;48.252;11.654;2022-08-05T02:14:26;7.22;;;4.53;;
74269;SDS011;62754;48.252;11.654;2022-08-05T02:16:54;6.45;;;5.18;;
74269;SDS011;62754;48.252;11.654;2022-08-05T02:19:39;5.97;;;5.30;;
74269;SDS011;62754;48.252;11.654;2022-08-05T02:22:15;4.82;;;4.32;;
74269;SDS011;62754;48.252;11.654;2022-08-05T02:24:49;6.03;;;5.20;;
74269;SDS011;62754;48.252;11.654;2022-08-05T02:27:17;7.22;;;5.35;;
74269;SDS011;62754;48.252;11.654;2022-08-05T02:29:46;6.47;;;5.00;;
74269;SDS011;62754;48.252;11.654;2022-08-05T02:32:14;5.90;;;5.30;;
74269;SDS011;62754;48.252;11.654;2022-08-05T02:34:42;6.63;;;5.20;;
74269;SDS011;62754;48.252;11.654;2022-08-05T02:37:10;6.38;;;4.80;;
74269;SDS011;62754;48.252;11.654;2022-08-05T02:39:38;5.93;;;5.15;;
74269;SDS011;62754;48.252;11.654;2022-08-05T02:42:06;6.07;;;4.65;;
74269;SDS011;62754;48.252;11.654;2022-08-05T02:44:35;5.93;;;4.90;;
74269;SDS011;62754;48.252;11.654;2022-08-05T02:47:04;5.55;;;4.88;;
74269;SDS011;62754;48.252;11.654;2022-08-05T02:49:35;6.80;;;5.18;;
74269;SDS011;62754;48.252;11.654;2022-08-05T02:52:07;8.15;;;5.40;;
74269;SDS011;62754;48.252;11.654;2022-08-05T02:54:35;10.52;;;5.28;;
74269;SDS011;62754;48.252;11.654;2022-08-05T02:57:02;6.32;;;5.10;;
74269;SDS011;62754;48.252;11.654;2022-08-05T02:59:31;5.18;;;4.68;;
74269;SDS011;62754;48.252;11.654;2022-08-05T03:01:57;6.05;;;5.40;;
74269;SDS011;62754;48.252;11.654;2022-08-05T03:04:23;6.30;;;5.15;;
74269;SDS011;62754;48.252;11.654;2022-08-05T03:06:49;6.07;;;5.25;;
74269;SDS011;62754;48.252;11.654;2022-08-05T03:09:15;6.18;;;5.53;;
74269;SDS011;62754;48.252;11.654;2022-08-05T03:11:42;7.38;;;5.40;;
74269;SDS011;62754;48.252;11.654;2022-08-05T03:14:08;6.20;;;5.60;;
74269;SDS011;62754;48.252;11.654;2022-08-05T03:16:34;7.60;;;5.85;;
74269;SDS011;62754;48.252;11.654;2022-08-05T03:19:00;7.38;;;5.47;;
74269;SDS011;62754;48.252;11.654;2022-08-05T03:21:26;6.00;;;5.40;;
74269;SDS011;62754;48.252;11.654;2022-08-05T03:23:51;6.97;;;4.85;;
74269;SDS011;62754;48.252;11.654;2022-08-05T03:26:18;7.13;;;5.68;;
74269;SDS011;62754;48.252;11.654;2022-08-05T03:28:44;6.32;;;5.38;;
74269;SDS011;62754;48.252;11.654;2022-08-05T03:31:10;6.88;;;4.82;;
74269;SDS011;62754;48.252;11.654;2022-08-05T03:33:36;6.32;;;5.72;;
74269;SDS011;62754;48.252;11.654;2022-08-05T03:36:03;7.35;;;5.40;;
74269;SDS011;62754;48.252;11.654;2022-08-05T03:38:29;5.65;;;5.05;;
74269;SDS011;62754;48.252;11.654;2022-08-05T03:40:55;7.53;;;5.15;;
74269;SDS011;62754;48.252;11.654;2022-08-05T03:43:21;6.10;;;5.15;;
74269;SDS011;62754;48.252;11.654;2022-08-05T03:45:47;7.55;;;5.22;;
74269;SDS011;62754;48.252;11.654;2022-08-05T03:48:13;11.55;;;5.53;;
74269;SDS011;62754;48.252;11.654;2022-08-05T03:50:42;5.80;;;5.28;;
74269;SDS011;62754;48.252;11.654;2022-08-05T03:53:13;7.55;;;4.82;;
74269;SDS011;62754;48.252;11.654;2022-08-05T03:55:45;6.00;;;4.85;;
74269;SDS011;62754;48.252;11.654;2022-08-05T03:58:16;6.82;;;5.72;;
74269;SDS011;62754;48.252;11.654;2022-08-05T04:00:46;5.97;;;5.00;;
74269;SDS011;62754;48.252;11.654;2022-08-05T04:03:14;7.78;;;4.90;;
74269;SDS011;62754;48.252;11.654;2022-08-05T04:05:41;6.78;;;5.15;;
74269;SDS011;62754;48.252;11.654;2022-08-05T04:08:09;6.93;;;4.93;;
74269;SDS011;62754;48.252;11.654;2022-08-05T04:10:36;6.65;;;4.82;;
74269;SDS011;62754;48.252;11.654;2022-08-05T04:13:02;6.20;;;5.05;;
74269;SDS011;62754;48.252;11.654;2022-08-05T04:15:29;7.55;;;5.10;;
74269;SDS011;62754;48.252;11.654;2022-08-05T04:20:21;7.40;;;5.18;;
74269;SDS011;62754;48.252;11.654;2022-08-05T04:22:48;6.15;;;5.35;;
74269;SDS011;62754;48.252;11.654;2022-08-05T04:25:14;7.00;;;5.80;;
74269;SDS011;62754;48.252;11.654;2022-08-05T04:27:40;7.85;;;6.57;;
74269;SDS011;62754;48.252;11.654;2022-08-05T04:30:06;8.20;;;6.43;;
74269;SDS011;62754;48.252;11.654;2022-08-05T04:32:33;9.50;;;6.32;;
74269;SDS011;62754;48.252;11.654;2022-08-05T04:34:59;10.38;;;5.68;;
74269;SDS011;62754;48.252;11.654;2022-08-05T04:37:25;8.13;;;5.53;;
74269;SDS011;62754;48.252;11.654;2022-08-05T04:39:50;8.88;;;5.70;;
74269;SDS011;62754;48.252;11.654;2022-08-05T04:42:16;7.25;;;5.97;;
74269;SDS011;62754;48.252;11.654;2022-08-05T04:44:42;8.57;;;6.18;;
74269;SDS011;62754;48.252;11.654;2022-08-05T04:47:08;11.93;;;5.53;;
74269;SDS011;62754;48.252;11.654;2022-08-05T04:49:34;8.95;;;6.22;;
74269;SDS011;62754;48.252;11.654;2022-08-05T04:51:59;8.18;;;5.07;;
74269;SDS011;62754;48.252;11.654;2022-08-05T04:54:25;8.23;;;5.93;;
74269;SDS011;62754;48.252;11.654;2022-08-05T04:56:52;6.65;;;4.97;;
74269;SDS011;62754;48.252;11.654;2022-08-05T04:59:18;9.20;;;6.03;;
74269;SDS011;62754;48.252;11.654;2022-08-05T05:01:44;5.75;;;4.75;;
74269;SDS011;62754;48.252;11.654;2022-08-05T05:04:10;9.77;;;5.30;;
74269;SDS011;62754;48.252;11.654;2022-08-05T05:06:36;7.68;;;5.35;;
74269;SDS011;62754;48.252;11.654;2022-08-05T05:09:02;7.55;;;5.22;;
74269;SDS011;62754;48.252;11.654;2022-08-05T05:11:28;7.05;;;5.65;;
74269;SDS011;62754;48.252;11.654;2022-08-05T05:13:54;5.65;;;4.55;;
74269;SDS011;62754;48.252;11.654;2022-08-05T05:16:20;8.23;;;5.03;;
74269;SDS011;62754;48.252;11.654;2022-08-05T05:18:48;7.22;;;5.00;;
74269;SDS011;62754;48.252;11.654;2022-08-05T05:21:14;6.53;;;4.70;;
74269;SDS011;62754;48.252;11.654;2022-08-05T05:23:39;7.30;;;4.32;;
74269;SDS011;62754;48.252;11.654;2022-08-05T05:26:05;5.85;;;4.38;;
74269;SDS011;62754;48.252;11.654;2022-08-05T05:28:31;6.32;;;4.47;;
74269;SDS011;62754;48.252;11.654;2022-08-05T05:30:57;6.88;;;5.00;;
74269;SDS011;62754;48.252;11.654;2022-08-05T05:33:23;7.75;;;4.50;;
74269;SDS011;62754;48.252;11.654;2022-08-05T05:35:48;6.07;;;4.03;;
74269;SDS011;62754;48.252;11.654;2022-08-05T05:38:15;7.28;;;3.92;;
74269;SDS011;62754;48.252;11.654;2022-08-05T05:40:42;7.53;;;3.67;;
74269;SDS011;62754;48.252;11.654;2022-08-05T05:43:08;5.30;;;3.60;;
74269;SDS011;62754;48.252;11.654;2022-08-05T05:45:34;5.75;;;3.00;;
74269;SDS011;62754;48.252;11.654;2022-08-05T05:48:00;4.65;;;3.63;;
74269;SDS011;62754;48.252;11.654;2022-08-05T05:50:26;6.35;;;3.42;;
74269;SDS011;62754;48.252;11.654;2022-08-05T05:52:52;4.22;;;3.28;;
74269;SDS011;62754;48.252;11.654;2022-08-05T05:55:18;6.75;;;3.33;;
74269;SDS011;62754;48.252;11.654;2022-08-05T05:57:44;4.95;;;3.10;;
74269;SDS011;62754;48.252;11.654;2022-08-05T06:00:12;5.47;;;3.17;;
74269;SDS011;62754;48.252;11.654;2022-08-05T06:02:40;4.35;;;3.30;;
74269;SDS011;62754;48.252;11.654;2022-08-05T06:07:32;4.43;;;3.35;;
74269;SDS011;62754;48.252;11.654;2022-08-05T06:09:58;4.82;;;2.70;;
74269;SDS011;62754;48.252;11.654;2022-08-05T06:12:24;4.38;;;2.95;;
74269;SDS011;62754;48.252;11.654;2022-08-05T06:14:50;4.93;;;3.38;;
74269;SDS011;62754;48.252;11.654;2022-08-05T06:17:15;5.70;;;3.40;;
74269;SDS011;62754;48.252;11.654;2022-08-05T06:19:41;4.07;;;3.15;;
74269;SDS011;62754;48.252;11.654;2022-08-05T06:22:07;5.07;;;3.03;;
74269;SDS011;62754;48.252;11.654;2022-08-05T06:24:33;3.22;;;2.60;;
74269;SDS011;62754;48.252;11.654;2022-08-05T06:27:00;4.70;;;2.70;;
74269;SDS011;62754;48.252;11.654;2022-08-05T06:31:52;3.67;;;2.70;;
74269;SDS011;62754;48.252;11.654;2022-08-05T06:34:18;8.48;;;3.85;;
74269;SDS011;62754;48.252;11.654;2022-08-05T06:39:09;5.93;;;2.90;;
74269;SDS011;62754;48.252;11.654;2022-08-05T06:41:35;4.45;;;3.38;;
74269;SDS011;62754;48.252;11.654;2022-08-05T06:44:01;4.72;;;2.97;;
74269;SDS011;62754;48.252;11.654;2022-08-05T06:46:27;4.38;;;2.67;;
74269;SDS011;62754;48.252;11.654;2022-08-05T06:48:52;4.70;;;3.08;;
74269;SDS011;62754;48.252;11.654;2022-08-05T06:51:18;4.93;;;3.15;;
74269;SDS011;62754;48.252;11.654;2022-08-05T06:53:44;4.18;;;3.20;;
74269;SDS011;62754;48.252;11.654;2022-08-05T06:56:10;5.25;;;2.85;;
74269;SDS011;62754;48.252;11.654;2022-08-05T06:58:36;5.78;;;3.50;;
74269;SDS011;62754;48.252;11.654;2022-08-05T07:01:02;4.25;;;3.05;;
74269;SDS011;62754;48.252;11.654;2022-08-05T07:03:29;8.43;;;3.33;;
74269;SDS011;62754;48.252;11.654;2022-08-05T07:05:55;4.63;;;3.20;;
74269;SDS011;62754;48.252;11.654;2022-08-05T07:08:20;6.70;;;2.80;;
74269;SDS011;62754;48.252;11.654;2022-08-05T07:13:12;4.20;;;3.00;;
74269;SDS011;62754;48.252;11.654;2022-08-05T07:18:04;3.70;;;2.92;;
74269;SDS011;62754;48.252;11.654;2022-08-05T07:20:30;3.75;;;3.13;;
74269;SDS011;62754;48.252;11.654;2022-08-05T07:22:55;7.18;;;3.20;;
74269;SDS011;62754;48.252;11.654;2022-08-05T07:27:50;5.25;;;3.05;;
74269;SDS011;62754;48.252;11.654;2022-08-05T07:30:18;4.68;;;3.10;;
74269;SDS011;62754;48.252;11.654;2022-08-05T07:32:43;6.13;;;3.40;;
74269;SDS011;62754;48.252;11.654;2022-08-05T07:37:37;4.97;;;3.35;;
74269;SDS011;62754;48.252;11.654;2022-08-05T07:40:03;5.20;;;3.00;;
74269;SDS011;62754;48.252;11.654;2022-08-05T07:42:30;6.80;;;3.53;;
74269;SDS011;62754;48.252;11.654;2022-08-05T07:44:56;5.97;;;3.20;;
74269;SDS011;62754;48.252;11.654;2022-08-05T07:49:48;6.57;;;3.60;;
74269;SDS011;62754;48.252;11.654;2022-08-05T07:52:14;6.95;;;3.22;;
74269;SDS011;62754;48.252;11.654;2022-08-05T07:54:40;6.60;;;2.85;;
74269;SDS011;62754;48.252;11.654;2022-08-05T07:57:05;6.18;;;3.58;;
74269;SDS011;62754;48.252;11.654;2022-08-05T08:01:57;6.32;;;3.92;;
74269;SDS011;62754;48.252;11.654;2022-08-05T08:06:48;4.78;;;3.40;;
74269;SDS011;62754;48.252;11.654;2022-08-05T08:11:39;4.18;;;3.33;;
74269;SDS011;62754;48.252;11.654;2022-08-05T08:14:05;7.30;;;3.92;;
74269;SDS011;62754;48.252;11.654;2022-08-05T08:18:56;6.30;;;4.10;;
74269;SDS011;62754;48.252;11.654;2022-08-05T08:23:49;8.27;;;3.83;;
74269;SDS011;62754;48.252;11.654;2022-08-05T08:28:40;9.07;;;4.13;;
74269;SDS011;62754;48.252;11.654;2022-08-05T08:33:32;5.45;;;4.15;;
74269;SDS011;62754;48.252;11.654;2022-08-05T08:35:58;6.13;;;4.13;;
74269;SDS011;62754;48.252;11.654;2022-08-05T08:40:49;4.70;;;3.65;;
74269;SDS011;62754;48.252;11.654;2022-08-05T08:45:42;7.45;;;4.13;;
74269;SDS011;62754;48.252;11.654;2022-08-05T08:48:10;5.70;;;3.70;;
74269;SDS011;62754;48.252;11.654;2022-08-05T08:50:39;5.22;;;3.78;;
74269;SDS011;62754;48.252;11.654;2022-08-05T08:53:07;6.95;;;4.10;;
74269;SDS011;62754;48.252;11.654;2022-08-05T08:55:36;5.57;;;3.90;;
74269;SDS011;62754;48.252;11.654;2022-08-05T08:58:03;7.88;;;3.65;;
74269;SDS011;62754;48.252;11.654;2022-08-05T09:00:29;8.23;;;3.80;;
74269;SDS011;62754;48.252;11.654;2022-08-05T09:02:55;9.20;;;3.53;;
74269;SDS011;62754;48.252;11.654;2022-08-05T09:05:22;5.95;;;3.67;;
74269;SDS011;62754;48.252;11.654;2022-08-05T09:07:49;7.38;;;3.70;;
74269;SDS011;62754;48.252;11.654;2022-08-05T09:10:17;5.63;;;3.42;;
74269;SDS011;62754;48.252;11.654;2022-08-05T09:12:43;10.25;;;3.75;;
74269;SDS011;62754;48.252;11.654;2022-08-05T09:15:09;5.13;;;3.15;;
74269;SDS011;62754;48.252;11.654;2022-08-05T09:17:35;6.10;;;3.20;;
74269;SDS011;62754;48.252;11.654;2022-08-05T09:20:02;8.05;;;3.72;;
74269;SDS011;62754;48.252;11.654;2022-08-05T09:22:38;5.85;;;3.40;;
74269;SDS011;62754;48.252;11.654;2022-08-05T09:25:26;6.47;;;4.07;;
74269;SDS011;62754;48.252;11.654;2022-08-05T09:27:52;7.00;;;3.97;;
74269;SDS011;62754;48.252;11.654;2022-08-05T09:30:18;5.47;;;3.40;;
74269;SDS011;62754;48.252;11.654;2022-08-05T09:32:47;5.28;;;3.22;;
74269;SDS011;62754;48.252;11.654;2022-08-05T09:35:15;6.03;;;3.67;;
74269;SDS011;62754;48.252;11.654;2022-08-05T09:37:48;7.88;;;3.15;;
74269;SDS011;62754;48.252;11.654;2022-08-05T09:43:27;5.72;;;3.25;;
74269;SDS011;62754;48.252;11.654;2022-08-05T09:45:57;7.25;;;3.28;;
74269;SDS011;62754;48.252;11.654;2022-08-05T09:48:32;6.15;;;3.45;;
74269;SDS011;62754;48.252;11.654;2022-08-05T09:51:02;8.77;;;3.60;;
74269;SDS011;62754;48.252;11.654;2022-08-05T09:53:45;5.85;;;3.30;;
74269;SDS011;62754;48.252;11.654;2022-08-05T09:56:29;5.78;;;3.67;;
74269;SDS011;62754;48.252;11.654;2022-08-05T09:59:01;7.97;;;3.92;;
74269;SDS011;62754;48.252;11.654;2022-08-05T10:01:30;8.73;;;3.78;;
74269;SDS011;62754;48.252;11.654;2022-08-05T10:04:00;5.85;;;2.92;;
74269;SDS011;62754;48.252;11.654;2022-08-05T10:06:33;6.10;;;3.38;;
74269;SDS011;62754;48.252;11.654;2022-08-05T10:09:12;6.10;;;3.15;;
74269;SDS011;62754;48.252;11.654;2022-08-05T10:11:42;6.13;;;3.00;;
74269;SDS011;62754;48.252;11.654;2022-08-05T10:14:21;6.10;;;3.08;;
74269;SDS011;62754;48.252;11.654;2022-08-05T10:16:54;4.32;;;2.92;;
74269;SDS011;62754;48.252;11.654;2022-08-05T10:19:24;6.65;;;3.13;;
74269;SDS011;62754;48.252;11.654;2022-08-05T10:21:50;4.72;;;3.00;;
74269;SDS011;62754;48.252;11.654;2022-08-05T10:24:17;4.82;;;2.67;;
74269;SDS011;62754;48.252;11.654;2022-08-05T10:26:44;4.93;;;2.60;;
74269;SDS011;62754;48.252;11.654;2022-08-05T10:29:12;7.28;;;2.22;;
74269;SDS011;62754;48.252;11.654;2022-08-05T10:31:38;5.22;;;2.50;;
74269;SDS011;62754;48.252;11.654;2022-08-05T10:34:07;6.97;;;2.80;;
74269;SDS011;62754;48.252;11.654;2022-08-05T10:36:34;5.65;;;2.50;;
74269;SDS011;62754;48.252;11.654;2022-08-05T10:39:04;6.00;;;2.90;;
74269;SDS011;62754;48.252;11.654;2022-08-05T10:41:35;8.02;;;2.80;;
74269;SDS011;62754;48.252;11.654;2022-08-05T10:44:10;7.10;;;2.63;;
74269;SDS011;62754;48.252;11.654;2022-08-05T10:46:44;7.60;;;2.60;;
74269;SDS011;62754;48.252;11.654;2022-08-05T10:49:11;7.40;;;3.60;;
74269;SDS011;62754;48.252;11.654;2022-08-05T10:51:42;5.50;;;2.53;;
74269;SDS011;62754;48.252;11.654;2022-08-05T10:54:14;5.95;;;2.70;;
74269;SDS011;62754;48.252;11.654;2022-08-05T10:56:45;5.88;;;2.63;;
74269;SDS011;62754;48.252;11.654;2022-08-05T10:59:18;7.43;;;3.47;;
74269;SDS011;62754;48.252;11.654;2022-08-05T11:01:53;4.43;;;2.70;;
74269;SDS011;62754;48.252;11.654;2022-08-05T11:04:43;4.82;;;2.85;;
74269;SDS011;62754;48.252;11.654;2022-08-05T11:07:11;4.10;;;2.50;;
74269;SDS011;62754;48.252;11.654;2022-08-05T11:09:42;5.65;;;2.80;;
74269;SDS011;62754;48.252;11.654;2022-08-05T11:15:07;6.40;;;2.40;;
74269;SDS011;62754;48.252;11.654;2022-08-05T11:17:43;4.32;;;2.13;;
74269;SDS011;62754;48.252;11.654;2022-08-05T11:35:56;3.30;;;2.08;;
74269;SDS011;62754;48.252;11.654;2022-08-05T11:41:12;6.47;;;2.58;;
74269;SDS011;62754;48.252;11.654;2022-08-05T11:43:38;6.75;;;2.35;;
74269;SDS011;62754;48.252;11.654;2022-08-05T11:46:08;4.72;;;2.47;;
74269;SDS011;62754;48.252;11.654;2022-08-05T11:48:34;4.25;;;2.50;;
74269;SDS011;62754;48.252;11.654;2022-08-05T11:51:00;5.53;;;2.45;;
74269;SDS011;62754;48.252;11.654;2022-08-05T11:53:26;5.50;;;2.33;;
74269;SDS011;62754;48.252;11.654;2022-08-05T11:55:57;4.90;;;2.35;;
74269;SDS011;62754;48.252;11.654;2022-08-05T11:58:29;3.72;;;2.20;;
74269;SDS011;62754;48.252;11.654;2022-08-05T12:01:01;3.97;;;2.15;;
74269;SDS011;62754;48.252;11.654;2022-08-05T12:03:49;5.97;;;2.83;;
74269;SDS011;62754;48.252;11.654;2022-08-05T12:06:15;4.70;;;2.30;;
74269;SDS011;62754;48.252;11.654;2022-08-05T12:08:43;5.57;;;2.50;;
74269;SDS011;62754;48.252;11.654;2022-08-05T12:11:19;4.18;;;2.33;;
74269;SDS011;62754;48.252;11.654;2022-08-05T12:16:24;4.97;;;2.67;;
74269;SDS011;62754;48.252;11.654;2022-08-05T12:18:51;5.30;;;2.60;;
74269;SDS011;62754;48.252;11.654;2022-08-05T12:21:19;4.47;;;2.63;;
74269;SDS011;62754;48.252;11.654;2022-08-05T12:23:56;6.97;;;2.60;;
74269;SDS011;62754;48.252;11.654;2022-08-05T12:26:23;5.53;;;2.72;;
74269;SDS011;62754;48.252;11.654;2022-08-05T12:28:54;4.15;;;2.45;;
74269;SDS011;62754;48.252;11.654;2022-08-05T12:31:20;5.80;;;2.22;;
74269;SDS011;62754;48.252;11.654;2022-08-05T12:33:46;8.38;;;2.65;;
74269;SDS011;62754;48.252;11.654;2022-08-05T12:36:12;3.53;;;2.55;;
74269;SDS011;62754;48.252;11.654;2022-08-05T12:38:38;5.20;;;2.55;;
74269;SDS011;62754;48.252;11.654;2022-08-05T12:41:08;4.85;;;2.53;;
74269;SDS011;62754;48.252;11.654;2022-08-05T12:43:47;6.80;;;2.63;;
74269;SDS011;62754;48.252;11.654;2022-08-05T12:46:24;3.40;;;2.38;;
74269;SDS011;62754;48.252;11.654;2022-08-05T12:54:24;4.60;;;2.30;;
74269;SDS011;62754;48.252;11.654;2022-08-05T12:56:53;6.05;;;2.70;;
74269;SDS011;62754;48.252;11.654;2022-08-05T12:59:25;7.18;;;2.65;;
74269;SDS011;62754;48.252;11.654;2022-08-05T13:01:54;4.00;;;2.30;;
74269;SDS011;62754;48.252;11.654;2022-08-05T13:04:28;4.18;;;2.50;;
74269;SDS011;62754;48.252;11.654;2022-08-05T13:07:00;4.15;;;2.13;;
74269;SDS011;62754;48.252;11.654;2022-08-05T13:09:28;5.45;;;2.20;;
74269;SDS011;62754;48.252;11.654;2022-08-05T13:12:08;4.05;;;2.47;;
74269;SDS011;62754;48.252;11.654;2022-08-05T13:14:37;5.07;;;2.30;;
74269;SDS011;62754;48.252;11.654;2022-08-05T13:17:08;3.58;;;2.20;;
74269;SDS011;62754;48.252;11.654;2022-08-05T13:19:34;4.07;;;1.95;;
74269;SDS011;62754;48.252;11.654;2022-08-05T13:22:00;5.18;;;2.22;;
74269;SDS011;62754;48.252;11.654;2022-08-05T13:24:26;3.40;;;2.22;;
74269;SDS011;62754;48.252;11.654;2022-08-05T13:26:52;4.18;;;2.22;;
74269;SDS011;62754;48.252;11.654;2022-08-05T13:29:17;3.70;;;2.38;;
74269;SDS011;62754;48.252;11.654;2022-08-05T13:31:43;3.10;;;2.05;;
74269;SDS011;62754;48.252;11.654;2022-08-05T13:34:09;5.20;;;2.47;;
74269;SDS011;62754;48.252;11.654;2022-08-05T13:36:35;6.28;;;2.20;;
74269;SDS011;62754;48.252;11.654;2022-08-05T13:39:01;4.65;;;2.33;;
74269;SDS011;62754;48.252;11.654;2022-08-05T13:41:29;10.52;;;2.60;;
74269;SDS011;62754;48.252;11.654;2022-08-05T13:43:55;4.13;;;2.33;;
74269;SDS011;62754;48.252;11.654;2022-08-05T13:46:21;5.50;;;2.45;;
74269;SDS011;62754;48.252;11.654;2022-08-05T13:48:47;4.90;;;2.53;;
74269;SDS011;62754;48.252;11.654;2022-08-05T13:51:13;6.30;;;2.58;;
74269;SDS011;62754;48.252;11.654;2022-08-05T13:53:40;4.35;;;2.80;;
74269;SDS011;62754;48.252;11.654;2022-08-05T13:56:07;6.45;;;3.38;;
74269;SDS011;62754;48.252;11.654;2022-08-05T13:58:33;4.68;;;2.60;;
74269;SDS011;62754;48.252;11.654;2022-08-05T14:01:00;5.00;;;2.50;;
74269;SDS011;62754;48.252;11.654;2022-08-05T14:03:26;4.80;;;2.25;;
74269;SDS011;62754;48.252;11.654;2022-08-05T14:05:52;4.65;;;2.30;;
74269;SDS011;62754;48.252;11.654;2022-08-05T14:08:18;5.95;;;2.67;;
74269;SDS011;62754;48.252;11.654;2022-08-05T14:10:44;3.92;;;2.15;;
74269;SDS011;62754;48.252;11.654;2022-08-05T14:13:11;4.65;;;2.60;;
74269;SDS011;62754;48.252;11.654;2022-08-05T14:15:37;3.83;;;2.03;;
74269;SDS011;62754;48.252;11.654;2022-08-05T14:18:02;8.95;;;2.42;;
74269;SDS011;62754;48.252;11.654;2022-08-05T14:20:28;5.65;;;2.45;;
74269;SDS011;62754;48.252;11.654;2022-08-05T14:22:56;4.65;;;2.28;;
74269;SDS011;62754;48.252;11.654;2022-08-05T14:25:25;4.50;;;2.70;;
74269;SDS011;62754;48.252;11.654;2022-08-05T14:27:51;5.13;;;2.45;;
74269;SDS011;62754;48.252;11.654;2022-08-05T14:30:17;3.80;;;2.08;;
74269;SDS011;62754;48.252;11.654;2022-08-05T14:32:43;4.90;;;2.25;;
74269;SDS011;62754;48.252;11.654;2022-08-05T14:35:09;5.50;;;2.70;;
74269;SDS011;62754;48.252;11.654;2022-08-05T14:37:35;3.85;;;2.30;;
74269;SDS011;62754;48.252;11.654;2022-08-05T14:40:01;5.28;;;2.40;;
74269;SDS011;62754;48.252;11.654;2022-08-05T14:42:27;3.58;;;2.33;;
74269;SDS011;62754;48.252;11.654;2022-08-05T14:44:53;7.30;;;2.60;;
74269;SDS011;62754;48.252;11.654;2022-08-05T14:47:19;6.80;;;2.15;;
74269;SDS011;62754;48.252;11.654;2022-08-05T14:49:45;7.38;;;2.50;;
74269;SDS011;62754;48.252;11.654;2022-08-05T14:52:10;5.57;;;2.25;;
74269;SDS011;62754;48.252;11.654;2022-08-05T14:54:36;6.00;;;3.53;;
74269;SDS011;62754;48.252;11.654;2022-08-05T14:57:02;9.60;;;2.85;;
74269;SDS011;62754;48.252;11.654;2022-08-05T14:59:28;5.60;;;2.95;;
74269;SDS011;62754;48.252;11.654;2022-08-05T15:01:54;5.72;;;3.55;;
74269;SDS011;62754;48.252;11.654;2022-08-05T15:04:20;5.30;;;3.35;;
74269;SDS011;62754;48.252;11.654;2022-08-05T15:06:46;5.15;;;2.83;;
74269;SDS011;62754;48.252;11.654;2022-08-05T15:09:13;6.30;;;3.35;;
74269;SDS011;62754;48.252;11.654;2022-08-05T15:11:38;8.20;;;2.60;;
74269;SDS011;62754;48.252;11.654;2022-08-05T15:14:04;6.13;;;3.03;;
74269;SDS011;62754;48.252;11.654;2022-08-05T15:16:30;4.53;;;3.13;;
74269;SDS011;62754;48.252;11.654;2022-08-05T15:18:56;4.63;;;2.50;;
74269;SDS011;62754;48.252;11.654;2022-08-05T15:21:21;3.50;;;2.38;;
74269;SDS011;62754;48.252;11.654;2022-08-05T15:23:47;5.13;;;2.55;;
74269;SDS011;62754;48.252;11.654;2022-08-05T15:26:13;4.65;;;2.53;;
74269;SDS011;62754;48.252;11.654;2022-08-05T15:28:39;5.45;;;2.63;;
74269;SDS011;62754;48.252;11.654;2022-08-05T15:31:05;3.80;;;2.33;;
74269;SDS011;62754;48.252;11.654;2022-08-05T15:33:31;4.82;;;2.35;;
74269;SDS011;62754;48.252;11.654;2022-08-05T15:35:56;6.28;;;2.70;;
74269;SDS011;62754;48.252;11.654;2022-08-05T15:38:22;5.95;;;2.53;;
74269;SDS011;62754;48.252;11.654;2022-08-05T15:40:48;4.50;;;2.47;;
74269;SDS011;62754;48.252;11.654;2022-08-05T15:43:14;3.83;;;2.25;;
74269;SDS011;62754;48.252;11.654;2022-08-05T15:45:42;5.20;;;2.70;;
74269;SDS011;62754;48.252;11.654;2022-08-05T15:48:11;5.18;;;2.60;;
74269;SDS011;62754;48.252;11.654;2022-08-05T15:50:37;4.75;;;2.78;;
74269;SDS011;62754;48.252;11.654;2022-08-05T15:53:03;4.50;;;2.67;;
74269;SDS011;62754;48.252;11.654;2022-08-05T15:55:29;3.67;;;2.33;;
74269;SDS011;62754;48.252;11.654;2022-08-05T15:57:55;5.65;;;2.50;;
74269;SDS011;62754;48.252;11.654;2022-08-05T16:00:21;3.88;;;2.50;;